createdAt,value
2023-05-20T00:02:12.428Z,10.56
2023-05-20T00:04:42.306Z,10.61
2023-05-20T00:07:09.856Z,10.51
2023-05-20T00:09:39.633Z,10.54
2023-05-20T00:12:07.482Z,10.41
2023-05-20T00:14:34.804Z,10.29
2023-05-20T00:17:02.185Z,10.66
2023-05-20T00:19:29.989Z,10.67
2023-05-20T00:21:58.178Z,10.59
2023-05-20T00:24:25.960Z,10.52
2023-05-20T00:26:54.075Z,10.64
2023-05-20T00:29:22.350Z,10.71
2023-05-20T00:31:49.847Z,10.75
2023-05-20T00:34:17.657Z,10.67
2023-05-20T00:36:44.969Z,10.70
2023-05-20T00:39:12.768Z,10.61
2023-05-20T00:41:41.060Z,10.50
2023-05-20T00:44:08.348Z,10.58
2023-05-20T00:46:36.175Z,10.40
2023-05-20T00:49:04.049Z,10.44
2023-05-20T00:51:31.624Z,10.34
2023-05-20T00:53:59.160Z,10.19
2023-05-20T00:56:26.947Z,10.12
2023-05-20T00:58:54.721Z,10.19
2023-05-20T01:01:22.295Z,10.22
2023-05-20T01:03:50.053Z,10.24
2023-05-20T01:06:17.379Z,10.06
2023-05-20T01:08:44.685Z,10.01
2023-05-20T01:11:21.036Z,10.06
2023-05-20T01:13:54.530Z,10.03
2023-05-20T01:16:25.047Z,9.79
2023-05-20T01:18:56.313Z,9.92
2023-05-20T01:21:24.566Z,9.66
2023-05-20T01:23:51.992Z,9.44
2023-05-20T01:26:19.733Z,9.58
2023-05-20T01:28:47.599Z,9.67
2023-05-20T01:31:23.851Z,9.91
2023-05-20T01:33:56.561Z,9.84
2023-05-20T01:36:25.233Z,9.95
2023-05-20T01:38:54.513Z,9.79
2023-05-20T01:41:25.377Z,9.59
2023-05-20T01:43:55.314Z,9.61
2023-05-20T01:46:22.948Z,9.78
2023-05-20T01:48:50.491Z,9.36
2023-05-20T01:51:18.398Z,9.51
2023-05-20T01:53:45.773Z,9.69
2023-05-20T01:56:13.651Z,9.76
2023-05-20T01:58:41.338Z,9.82
2023-05-20T02:01:09.097Z,9.59
2023-05-20T02:03:36.870Z,8.96
2023-05-20T02:06:04.327Z,9.08
2023-05-20T02:08:31.684Z,9.13
2023-05-20T02:11:00.136Z,9.40
2023-05-20T02:13:28.224Z,9.39
2023-05-20T02:15:55.870Z,9.45
2023-05-20T02:18:26.742Z,9.40
2023-05-20T02:20:54.089Z,9.71
2023-05-20T02:23:21.837Z,9.22
2023-05-20T02:25:49.159Z,9.04
2023-05-20T02:28:17.352Z,9.07
2023-05-20T02:30:45.094Z,9.09
2023-05-20T02:33:14.245Z,9.19
2023-05-20T02:35:42.224Z,9.19
2023-05-20T02:38:11.231Z,9.11
2023-05-20T02:40:38.717Z,8.96
2023-05-20T02:43:06.291Z,9.08
2023-05-20T02:45:34.835Z,9.15
2023-05-20T02:48:07.800Z,8.90
2023-05-20T02:50:41.271Z,8.60
2023-05-20T02:53:08.782Z,8.79
2023-05-20T02:55:37.119Z,8.94
2023-05-20T02:58:04.416Z,8.94
2023-05-20T03:00:32.185Z,8.74
2023-05-20T03:02:59.989Z,9.13
2023-05-20T03:05:28.553Z,8.71
2023-05-20T03:07:56.707Z,8.85
2023-05-20T03:10:24.365Z,8.77
2023-05-20T03:12:51.764Z,8.80
2023-05-20T03:15:19.097Z,8.68
2023-05-20T03:17:46.850Z,8.75
2023-05-20T03:20:15.551Z,8.89
2023-05-20T03:22:42.936Z,9.10
2023-05-20T03:25:10.867Z,9.13
2023-05-20T03:27:38.269Z,9.02
2023-05-20T03:30:06.469Z,8.83
2023-05-20T03:32:34.226Z,8.82
2023-05-20T03:35:02.010Z,9.06
2023-05-20T03:37:29.763Z,8.55
2023-05-20T03:39:57.642Z,8.65
2023-05-20T03:42:25.235Z,8.42
2023-05-20T03:44:53.776Z,8.55
2023-05-20T03:47:27.938Z,8.85
2023-05-20T03:49:55.473Z,8.95
2023-05-20T03:52:25.754Z,9.08
2023-05-20T03:54:54.073Z,9.24
2023-05-20T03:57:21.620Z,9.33
2023-05-20T03:59:56.317Z,9.33
2023-05-20T04:02:24.266Z,9.25
2023-05-20T04:04:57.898Z,9.47
2023-05-20T04:07:32.090Z,9.28
2023-05-20T04:10:08.168Z,9.51
2023-05-20T04:12:39.615Z,8.82
2023-05-20T04:15:09.251Z,8.98
2023-05-20T04:17:38.581Z,9.19
2023-05-20T04:20:08.128Z,9.30
2023-05-20T04:22:37.626Z,9.28
2023-05-20T04:25:05.443Z,9.54
2023-05-20T04:27:37.985Z,9.47
2023-05-20T04:30:07.162Z,9.59
2023-05-20T04:32:39.433Z,9.85
2023-05-20T04:35:12.106Z,9.93
2023-05-20T04:37:48.605Z,9.94
2023-05-20T04:40:17.923Z,10.05
2023-05-20T04:42:45.776Z,10.15
2023-05-20T04:45:18.242Z,10.23
2023-05-20T04:47:52.755Z,10.07
2023-05-20T04:50:21.433Z,10.08
2023-05-20T04:52:49.754Z,10.00
2023-05-20T04:55:19.930Z,9.87
2023-05-20T04:57:51.106Z,9.98
2023-05-20T05:00:43.986Z,9.96
2023-05-20T05:03:15.092Z,10.23
2023-05-20T05:05:43.496Z,10.29
2023-05-20T05:08:14.241Z,10.45
2023-05-20T05:10:42.649Z,10.50
2023-05-20T05:13:11.434Z,10.37
2023-05-20T05:15:38.920Z,9.95
2023-05-20T05:18:27.309Z,10.00
2023-05-20T05:21:04.659Z,9.87
2023-05-20T05:23:34.158Z,9.58
2023-05-20T05:26:05.415Z,10.08
2023-05-20T05:28:32.852Z,10.11
2023-05-20T05:31:02.566Z,10.38
2023-05-20T05:33:40.056Z,10.63
2023-05-20T05:36:10.391Z,11.00
2023-05-20T05:38:38.754Z,10.96
2023-05-20T05:41:08.804Z,11.10
2023-05-20T05:43:38.817Z,11.27
2023-05-20T05:46:13.408Z,11.41
2023-05-20T05:48:47.619Z,11.44
2023-05-20T05:51:27.997Z,11.59
2023-05-20T05:53:55.764Z,11.72
2023-05-20T05:56:31.190Z,11.88
2023-05-20T05:58:59.291Z,12.05
2023-05-20T06:01:28.149Z,11.94
2023-05-20T06:03:56.076Z,11.89
2023-05-20T06:06:23.572Z,11.66
2023-05-20T06:08:51.036Z,11.84
2023-05-20T06:11:21.060Z,11.90
2023-05-20T06:13:48.406Z,11.98
2023-05-20T06:16:17.013Z,12.06
2023-05-20T06:18:47.096Z,12.16
2023-05-20T06:21:33.301Z,12.37
2023-05-20T06:24:08.985Z,12.07
2023-05-20T06:26:43.212Z,12.27
2023-05-20T06:29:13.501Z,12.52
2023-05-20T06:31:41.576Z,12.49
2023-05-20T06:34:09.601Z,12.94
2023-05-20T06:36:37.800Z,13.09
2023-05-20T06:39:11.263Z,13.40
2023-05-20T06:41:49.052Z,13.23
2023-05-20T06:44:20.218Z,13.43
2023-05-20T06:46:52.962Z,13.76
2023-05-20T06:49:20.779Z,13.88
2023-05-20T06:51:51.169Z,14.00
2023-05-20T06:54:21.380Z,14.28
2023-05-20T06:56:51.626Z,14.37
2023-05-20T06:59:21.455Z,14.55
2023-05-20T07:01:51.535Z,14.82
2023-05-20T07:04:19.494Z,15.11
2023-05-20T07:06:52.638Z,15.19
2023-05-20T07:09:20.944Z,15.52
2023-05-20T07:12:00.987Z,15.73
2023-05-20T07:14:30.906Z,15.99
2023-05-20T07:17:02.912Z,16.07
2023-05-20T07:19:35.361Z,16.32
2023-05-20T07:22:12.570Z,16.58
2023-05-20T07:24:40.456Z,16.97
2023-05-20T07:27:08.756Z,17.17
2023-05-20T07:29:37.358Z,17.44
2023-05-20T07:32:05.854Z,17.55
2023-05-20T07:34:33.883Z,17.69
2023-05-20T07:37:01.554Z,17.73
2023-05-20T07:39:29.111Z,17.70
2023-05-20T07:41:56.828Z,17.67
2023-05-20T07:44:24.525Z,17.78
2023-05-20T07:46:53.037Z,18.00
2023-05-20T07:49:20.912Z,18.07
2023-05-20T07:51:48.529Z,18.02
2023-05-20T07:54:16.647Z,18.11
2023-05-20T07:56:45.275Z,18.30
2023-05-20T07:59:12.915Z,18.41
2023-05-20T08:01:42.811Z,18.62
2023-05-20T08:04:11.428Z,18.74
2023-05-20T08:06:40.213Z,18.99
2023-05-20T08:09:08.694Z,19.16
2023-05-20T08:11:44.024Z,19.24
2023-05-20T08:14:12.537Z,19.41
2023-05-20T08:16:44.984Z,19.38
2023-05-20T08:19:20.034Z,19.59
2023-05-20T08:21:50.879Z,19.56
2023-05-20T08:24:19.140Z,19.26
2023-05-20T08:26:47.153Z,19.32
2023-05-20T08:29:25.890Z,19.42
2023-05-20T08:31:53.767Z,19.78
2023-05-20T08:34:31.370Z,19.70
2023-05-20T08:36:59.107Z,20.05
2023-05-20T08:39:28.707Z,20.40
2023-05-20T08:41:59.137Z,20.54
2023-05-20T08:44:29.027Z,20.78
2023-05-20T08:46:58.001Z,20.61
2023-05-20T08:49:26.516Z,20.50
2023-05-20T08:51:54.252Z,20.41
2023-05-20T08:54:24.218Z,20.27
2023-05-20T08:56:54.641Z,20.66
2023-05-20T08:59:27.749Z,20.88
2023-05-20T09:01:58.101Z,20.91
2023-05-20T09:04:28.891Z,21.22
2023-05-20T09:06:56.470Z,21.13
2023-05-20T09:09:23.980Z,21.13
2023-05-20T09:11:54.673Z,21.03
2023-05-20T09:14:23.993Z,21.08
2023-05-20T09:16:52.396Z,21.66
2023-05-20T09:19:29.175Z,21.46
2023-05-20T09:22:26.152Z,21.69
2023-05-20T09:24:55.944Z,21.84
2023-05-20T09:27:29.362Z,21.54
2023-05-20T09:29:58.567Z,21.52
2023-05-20T09:32:29.206Z,20.93
2023-05-20T09:34:56.626Z,20.92
2023-05-20T09:37:26.773Z,21.20
2023-05-20T09:40:04.185Z,21.30
2023-05-20T09:42:50.536Z,21.09
2023-05-20T09:45:23.771Z,21.51
2023-05-20T09:47:55.946Z,21.68
2023-05-20T09:50:25.692Z,21.90
2023-05-20T09:52:55.056Z,21.79
2023-05-20T09:55:25.153Z,22.15
2023-05-20T09:57:55.108Z,21.73
2023-05-20T10:00:23.010Z,21.67
2023-05-20T10:02:52.427Z,21.64
2023-05-20T10:05:33.960Z,21.86
2023-05-20T10:08:29.719Z,21.56
2023-05-20T10:11:06.922Z,21.22
2023-05-20T10:14:04.541Z,21.17
2023-05-20T10:17:20.128Z,21.29
2023-05-20T10:19:50.061Z,21.57
2023-05-20T10:22:32.082Z,21.35
2023-05-20T10:25:21.940Z,21.68
2023-05-20T10:27:49.378Z,21.64
2023-05-20T10:30:22.716Z,20.99
2023-05-20T10:32:57.054Z,20.07
2023-05-20T10:35:28.938Z,18.18
2023-05-20T10:38:09.986Z,17.80
2023-05-20T10:40:38.744Z,17.05
2023-05-20T10:43:11.199Z,16.78
2023-05-20T10:45:50.168Z,17.11
2023-05-20T10:48:29.463Z,17.45
2023-05-20T10:51:04.959Z,17.46
2023-05-20T10:53:45.329Z,17.55
2023-05-20T10:56:20.519Z,17.68
2023-05-20T10:58:49.071Z,17.78
2023-05-20T11:01:19.298Z,17.83
2023-05-20T11:03:49.023Z,17.84
2023-05-20T11:06:19.352Z,17.85
2023-05-20T11:08:47.693Z,17.89
2023-05-20T11:11:15.966Z,18.45
2023-05-20T11:13:44.017Z,18.84
2023-05-20T11:16:12.071Z,19.01
2023-05-20T11:18:40.042Z,18.88
2023-05-20T11:21:10.183Z,19.14
2023-05-20T11:23:39.963Z,19.12
2023-05-20T11:26:09.223Z,19.13
2023-05-20T11:28:36.927Z,19.02
2023-05-20T11:31:05.509Z,18.80
2023-05-20T11:33:33.593Z,18.34
2023-05-20T11:36:03.664Z,18.15
2023-05-20T11:38:34.500Z,17.84
2023-05-20T11:41:02.054Z,17.49
2023-05-20T11:43:30.228Z,17.50
2023-05-20T11:46:04.680Z,17.78
2023-05-20T11:48:32.482Z,17.97
2023-05-20T11:51:11.917Z,17.91
2023-05-20T11:53:42.244Z,17.57
2023-05-20T11:56:11.118Z,17.81
2023-05-20T11:58:39.775Z,17.54
2023-05-20T12:01:21.476Z,17.38
2023-05-20T12:03:53.377Z,17.81
2023-05-20T12:06:23.551Z,18.31
2023-05-20T12:08:52.256Z,19.14
2023-05-20T12:11:19.619Z,19.20
2023-05-20T12:13:47.364Z,20.00
2023-05-20T12:16:15.130Z,20.32
2023-05-20T12:18:43.169Z,19.86
2023-05-20T12:21:10.703Z,20.04
2023-05-20T12:24:29.466Z,19.89
2023-05-20T12:26:35.729Z,19.01
2023-05-20T12:29:03.792Z,18.20
2023-05-20T12:31:33.816Z,17.77
2023-05-20T12:34:03.274Z,17.96
2023-05-20T12:36:31.707Z,17.46
2023-05-20T12:38:59.279Z,17.51
2023-05-20T12:41:27.104Z,17.21
2023-05-20T12:43:55.500Z,17.00
2023-05-20T12:46:23.540Z,17.24
2023-05-20T12:48:54.966Z,16.90
2023-05-20T12:51:31.817Z,16.63
2023-05-20T12:54:34.879Z,16.68
2023-05-20T12:57:03.553Z,16.62
2023-05-20T12:59:32.126Z,16.49
2023-05-20T13:02:00.153Z,16.14
2023-05-20T13:04:28.897Z,15.59
2023-05-20T13:06:58.666Z,15.89
2023-05-20T13:09:26.174Z,16.24
2023-05-20T13:11:57.378Z,16.07
2023-05-20T13:14:25.775Z,16.05
2023-05-20T13:16:56.577Z,16.09
2023-05-20T13:19:24.799Z,15.81
2023-05-20T13:21:54.816Z,16.04
2023-05-20T13:24:22.196Z,16.24
2023-05-20T13:26:49.556Z,16.25
2023-05-20T13:29:17.583Z,15.93
2023-05-20T13:31:44.952Z,16.21
2023-05-20T13:34:12.399Z,16.30
2023-05-20T13:36:40.718Z,16.11
2023-05-20T13:39:08.091Z,16.16
2023-05-20T13:41:35.412Z,16.17
2023-05-20T13:44:03.689Z,16.35
2023-05-20T13:46:31.387Z,16.43
2023-05-20T13:48:58.879Z,16.42
2023-05-20T13:51:26.605Z,16.65
2023-05-20T13:53:54.037Z,16.57
2023-05-20T13:56:21.504Z,16.60
2023-05-20T13:58:49.164Z,16.96
2023-05-20T14:01:16.948Z,17.46
2023-05-20T14:03:45.161Z,18.09
2023-05-20T14:06:15.138Z,18.61
2023-05-20T14:08:42.544Z,19.08
2023-05-20T14:11:10.300Z,19.35
2023-05-20T14:13:37.705Z,19.22
2023-05-20T14:16:05.681Z,19.22
2023-05-20T14:18:33.384Z,19.36
2023-05-20T14:21:01.327Z,19.71
2023-05-20T14:23:28.646Z,19.70
2023-05-20T14:25:56.435Z,20.06
2023-05-20T14:28:23.805Z,20.07
2023-05-20T14:30:51.347Z,20.32
2023-05-20T14:33:19.096Z,20.36
2023-05-20T14:35:46.480Z,20.62
2023-05-20T14:38:13.806Z,20.95
2023-05-20T14:40:41.569Z,20.18
2023-05-20T14:43:09.058Z,20.04
2023-05-20T14:45:36.421Z,19.38
2023-05-20T14:48:04.392Z,19.24
2023-05-20T14:50:31.836Z,18.97
2023-05-20T14:52:59.191Z,18.78
2023-05-20T14:55:27.001Z,18.43
2023-05-20T14:57:54.403Z,18.14
2023-05-20T15:00:22.271Z,17.96
2023-05-20T15:02:50.296Z,17.73
2023-05-20T15:05:18.285Z,17.51
2023-05-20T15:07:46.926Z,17.55
2023-05-20T15:10:14.842Z,17.48
2023-05-20T15:12:42.516Z,17.31
2023-05-20T15:15:10.562Z,17.48
2023-05-20T15:17:38.317Z,17.52
2023-05-20T15:20:06.431Z,17.64
2023-05-20T15:22:34.011Z,17.73
2023-05-20T15:25:02.107Z,17.92
2023-05-20T15:27:29.699Z,18.07
2023-05-20T15:29:57.117Z,18.15
2023-05-20T15:32:24.940Z,18.32
2023-05-20T15:34:52.596Z,17.82
2023-05-20T15:37:20.059Z,18.17
2023-05-20T15:39:47.804Z,18.15
2023-05-20T15:42:18.562Z,17.99
2023-05-20T15:44:46.550Z,18.45
2023-05-20T15:47:14.314Z,20.04
2023-05-20T15:49:41.801Z,20.87
2023-05-20T15:52:09.277Z,20.56
2023-05-20T15:54:36.982Z,21.24
2023-05-20T15:57:05.227Z,21.90
2023-05-20T15:59:32.664Z,22.64
2023-05-20T16:02:00.502Z,22.76
2023-05-20T16:04:28.321Z,21.97
2023-05-20T16:06:56.088Z,22.20
2023-05-20T16:09:23.451Z,22.53
2023-05-20T16:11:51.382Z,22.12
2023-05-20T16:14:18.843Z,23.16
2023-05-20T16:16:46.602Z,23.53
2023-05-20T16:19:14.516Z,24.43
2023-05-20T16:21:42.015Z,23.50
2023-05-20T16:24:09.483Z,23.09
2023-05-20T16:26:37.233Z,21.47
2023-05-20T16:29:04.661Z,21.23
2023-05-20T16:31:32.093Z,20.38
2023-05-20T16:33:59.815Z,19.72
2023-05-20T16:36:27.758Z,19.03
2023-05-20T16:38:55.115Z,18.34
2023-05-20T16:41:23.075Z,18.19
2023-05-20T16:43:50.531Z,17.74
2023-05-20T16:46:18.001Z,17.44
2023-05-20T16:48:45.779Z,17.40
2023-05-20T16:51:13.177Z,17.37
2023-05-20T16:53:40.704Z,17.45
2023-05-20T16:56:08.587Z,17.63
2023-05-20T16:58:36.024Z,17.66
2023-05-20T17:01:03.897Z,17.52
2023-05-20T17:03:32.074Z,17.23
2023-05-20T17:05:59.616Z,17.38
2023-05-20T17:08:27.179Z,17.48
2023-05-20T17:10:54.990Z,16.99
2023-05-20T17:13:22.427Z,16.89
2023-05-20T17:15:49.826Z,17.04
2023-05-20T17:18:17.656Z,17.10
2023-05-20T17:20:45.033Z,17.06
2023-05-20T17:23:12.500Z,16.97
2023-05-20T17:25:40.261Z,16.90
2023-05-20T17:28:07.656Z,16.65
2023-05-20T17:30:35.244Z,16.28
2023-05-20T17:33:03.547Z,16.30
2023-05-20T17:35:31.858Z,16.43
2023-05-20T17:37:59.322Z,16.34
2023-05-20T17:40:27.193Z,16.32
2023-05-20T17:42:54.575Z,16.35
2023-05-20T17:45:21.941Z,16.14
2023-05-20T17:47:49.855Z,15.94
2023-05-20T17:50:17.198Z,15.90
2023-05-20T17:52:44.571Z,15.94
2023-05-20T17:55:13.175Z,15.70
2023-05-20T17:57:40.938Z,15.77
2023-05-20T18:00:10.374Z,15.82
2023-05-20T18:02:38.558Z,15.67
2023-05-20T18:05:06.933Z,15.48
2023-05-20T18:07:34.771Z,15.34
2023-05-20T18:10:02.175Z,15.40
2023-05-20T18:12:30.097Z,15.46
2023-05-20T18:14:57.725Z,15.28
2023-05-20T18:17:25.193Z,15.18
2023-05-20T18:19:52.969Z,15.12
2023-05-20T18:22:20.340Z,14.57
2023-05-20T18:24:47.718Z,14.85
2023-05-20T18:27:15.691Z,14.89
2023-05-20T18:29:43.079Z,14.79
2023-05-20T18:32:11.482Z,14.67
2023-05-20T18:34:39.333Z,14.54
2023-05-20T18:37:07.287Z,14.42
2023-05-20T18:39:34.912Z,14.40
2023-05-20T18:42:02.699Z,14.33
2023-05-20T18:44:30.311Z,14.37
2023-05-20T18:46:57.706Z,14.58
2023-05-20T18:49:25.457Z,14.70
2023-05-20T18:51:53.044Z,14.43
2023-05-20T18:54:20.505Z,14.50
2023-05-20T18:56:51.409Z,14.66
2023-05-20T18:59:19.234Z,14.65
2023-05-20T19:01:46.821Z,14.62
2023-05-20T19:04:14.611Z,14.70
2023-05-20T19:06:42.076Z,14.05
2023-05-20T19:09:09.401Z,13.80
2023-05-20T19:11:37.167Z,14.13
2023-05-20T19:14:06.597Z,14.19
2023-05-20T19:16:34.097Z,14.24
2023-05-20T19:19:01.895Z,14.39
2023-05-20T19:21:30.886Z,14.54
2023-05-20T19:23:58.374Z,14.65
2023-05-20T19:26:26.695Z,14.40
2023-05-20T19:28:54.075Z,14.43
2023-05-20T19:31:21.674Z,14.41
2023-05-20T19:33:53.188Z,14.38
2023-05-20T19:36:20.847Z,14.19
2023-05-20T19:38:48.747Z,13.81
2023-05-20T19:41:16.550Z,13.90
2023-05-20T19:43:44.056Z,14.06
2023-05-20T19:46:11.860Z,13.92
2023-05-20T19:48:39.305Z,13.80
2023-05-20T19:51:07.254Z,13.91
2023-05-20T19:53:34.906Z,13.79
2023-05-20T19:56:02.447Z,14.02
2023-05-20T19:58:29.868Z,14.27
2023-05-20T20:00:57.670Z,14.26
2023-05-20T20:03:25.404Z,14.06
2023-05-20T20:05:53.377Z,14.34
2023-05-20T20:08:20.907Z,14.41
2023-05-20T20:10:49.436Z,14.20
2023-05-20T20:13:16.754Z,14.27
2023-05-20T20:15:44.267Z,14.21
2023-05-20T20:18:12.040Z,14.16
2023-05-20T20:20:42.760Z,14.16
2023-05-20T20:23:10.340Z,14.06
2023-05-20T20:25:39.296Z,13.97
2023-05-20T20:28:08.054Z,14.14
2023-05-20T20:30:36.410Z,14.07
2023-05-20T20:33:06.710Z,14.09
2023-05-20T20:35:34.966Z,14.02
2023-05-20T20:38:09.685Z,13.89
2023-05-20T20:40:44.974Z,13.82
2023-05-20T20:43:20.506Z,14.11
2023-05-20T20:45:53.314Z,14.02
2023-05-20T20:48:27.043Z,13.89
2023-05-20T20:50:55.363Z,13.78
2023-05-20T20:53:23.063Z,13.70
2023-05-20T20:55:53.029Z,13.76
2023-05-20T20:58:20.781Z,13.85
2023-05-20T21:00:49.001Z,13.78
2023-05-20T21:03:16.652Z,13.79
2023-05-20T21:05:44.646Z,13.64
2023-05-20T21:08:13.388Z,13.44
2023-05-20T21:10:40.981Z,13.45
2023-05-20T21:13:08.815Z,13.51
2023-05-20T21:15:36.456Z,13.43
2023-05-20T21:18:04.191Z,13.32
2023-05-20T21:20:31.917Z,13.43
2023-05-20T21:22:59.305Z,13.47
2023-05-20T21:25:26.781Z,13.40
2023-05-20T21:27:54.434Z,13.55
2023-05-20T21:30:21.910Z,13.51
2023-05-20T21:32:49.245Z,13.66
2023-05-20T21:35:16.924Z,13.31
2023-05-20T21:37:44.411Z,13.40
2023-05-20T21:40:12.356Z,12.96
2023-05-20T21:42:40.152Z,13.26
2023-05-20T21:45:08.326Z,13.27
2023-05-20T21:47:35.944Z,13.31
2023-05-20T21:50:04.143Z,13.41
2023-05-20T21:52:31.606Z,13.43
2023-05-20T21:54:59.038Z,13.17
2023-05-20T21:57:27.144Z,13.03
2023-05-20T21:59:54.530Z,13.01
2023-05-20T22:02:21.932Z,13.05
2023-05-20T22:04:49.617Z,13.12
2023-05-20T22:07:17.011Z,13.22
2023-05-20T22:09:44.506Z,12.96
2023-05-20T22:12:15.621Z,12.78
2023-05-20T22:14:43.098Z,12.97
2023-05-20T22:17:10.787Z,13.13
2023-05-20T22:19:38.944Z,12.90
2023-05-20T22:22:06.484Z,12.99
2023-05-20T22:24:33.943Z,12.80
2023-05-20T22:27:01.960Z,12.84
2023-05-20T22:29:31.695Z,12.74
2023-05-20T22:31:59.581Z,12.68
2023-05-20T22:34:27.367Z,12.52
2023-05-20T22:36:54.749Z,12.66
2023-05-20T22:39:22.090Z,12.64
2023-05-20T22:41:49.913Z,12.44
2023-05-20T22:44:17.371Z,12.65
2023-05-20T22:46:44.738Z,12.76
2023-05-20T22:49:13.127Z,12.80
2023-05-20T22:51:41.251Z,12.46
2023-05-20T22:54:09.776Z,12.54
2023-05-20T22:56:37.388Z,12.59
2023-05-20T22:59:04.673Z,12.52
2023-05-20T23:01:32.324Z,12.65
2023-05-20T23:04:00.038Z,12.64
2023-05-20T23:06:27.448Z,12.41
2023-05-20T23:08:54.825Z,12.63
2023-05-20T23:11:23.444Z,12.66
2023-05-20T23:13:50.981Z,12.48
2023-05-20T23:16:18.378Z,12.48
2023-05-20T23:18:47.716Z,12.35
2023-05-20T23:21:15.133Z,12.29
2023-05-20T23:23:42.525Z,12.11
2023-05-20T23:26:10.104Z,11.72
2023-05-20T23:28:37.365Z,12.01
2023-05-20T23:31:04.746Z,12.31
2023-05-20T23:33:32.899Z,12.32
2023-05-20T23:36:00.302Z,12.22
2023-05-20T23:38:27.690Z,12.31
2023-05-20T23:40:55.364Z,12.08
2023-05-20T23:43:22.731Z,12.13
2023-05-20T23:45:50.139Z,12.10
2023-05-20T23:48:18.038Z,12.11
2023-05-20T23:50:46.317Z,12.32
2023-05-20T23:53:13.684Z,12.33
2023-05-20T23:55:41.482Z,11.97
2023-05-20T23:58:08.751Z,12.14
